sensor_id;sensor_type;location;lat;lon;timestamp;P1;durP1;ratioP1;P2;durP2;ratioP2
8098;SDS011;4092;47.876;9.372;2024-03-02T00:01:05;5.60;;;4.53;;
8098;SDS011;4092;47.876;9.372;2024-03-02T00:03:34;7.20;;;4.83;;
8098;SDS011;4092;47.876;9.372;2024-03-02T00:06:02;8.60;;;5.20;;
8098;SDS011;4092;47.876;9.372;2024-03-02T00:08:30;5.97;;;3.47;;
8098;SDS011;4092;47.876;9.372;2024-03-02T00:10:57;7.90;;;4.03;;
8098;SDS011;4092;47.876;9.372;2024-03-02T00:13:25;7.80;;;4.70;;
8098;SDS011;4092;47.876;9.372;2024-03-02T00:15:53;5.43;;;3.77;;
8098;SDS011;4092;47.876;9.372;2024-03-02T00:18:24;6.13;;;5.53;;
8098;SDS011;4092;47.876;9.372;2024-03-02T00:20:57;7.73;;;3.90;;
8098;SDS011;4092;47.876;9.372;2024-03-02T00:23:24;7.17;;;4.20;;
8098;SDS011;4092;47.876;9.372;2024-03-02T00:25:56;5.60;;;3.40;;
8098;SDS011;4092;47.876;9.372;2024-03-02T00:28:25;9.53;;;4.97;;
8098;SDS011;4092;47.876;9.372;2024-03-02T00:30:57;7.93;;;4.57;;
8098;SDS011;4092;47.876;9.372;2024-03-02T00:33:26;10.30;;;4.87;;
8098;SDS011;4092;47.876;9.372;2024-03-02T00:35:57;9.80;;;4.00;;
8098;SDS011;4092;47.876;9.372;2024-03-02T00:38:25;7.70;;;4.60;;
8098;SDS011;4092;47.876;9.372;2024-03-02T00:40:53;5.93;;;4.60;;
8098;SDS011;4092;47.876;9.372;2024-03-02T00:46:15;5.60;;;3.70;;
8098;SDS011;4092;47.876;9.372;2024-03-02T00:48:53;8.10;;;4.77;;
8098;SDS011;4092;47.876;9.372;2024-03-02T00:51:23;6.03;;;3.67;;
8098;SDS011;4092;47.876;9.372;2024-03-02T00:53:52;4.73;;;3.47;;
8098;SDS011;4092;47.876;9.372;2024-03-02T00:56:21;5.97;;;3.70;;
8098;SDS011;4092;47.876;9.372;2024-03-02T00:58:49;7.63;;;4.70;;
8098;SDS011;4092;47.876;9.372;2024-03-02T01:01:17;9.67;;;4.30;;
8098;SDS011;4092;47.876;9.372;2024-03-02T01:03:44;7.00;;;3.80;;
8098;SDS011;4092;47.876;9.372;2024-03-02T01:06:12;9.67;;;4.20;;
8098;SDS011;4092;47.876;9.372;2024-03-02T01:08:40;6.57;;;4.10;;
8098;SDS011;4092;47.876;9.372;2024-03-02T01:11:07;5.53;;;4.00;;
8098;SDS011;4092;47.876;9.372;2024-03-02T01:13:34;4.07;;;3.20;;
8098;SDS011;4092;47.876;9.372;2024-03-02T01:16:02;4.60;;;3.17;;
8098;SDS011;4092;47.876;9.372;2024-03-02T01:18:29;8.47;;;5.10;;
8098;SDS011;4092;47.876;9.372;2024-03-02T01:20:56;8.13;;;4.80;;
8098;SDS011;4092;47.876;9.372;2024-03-02T01:23:24;6.90;;;4.03;;
8098;SDS011;4092;47.876;9.372;2024-03-02T01:25:53;6.57;;;4.30;;
8098;SDS011;4092;47.876;9.372;2024-03-02T01:28:20;10.97;;;5.60;;
8098;SDS011;4092;47.876;9.372;2024-03-02T01:30:47;10.80;;;6.20;;
8098;SDS011;4092;47.876;9.372;2024-03-02T01:33:15;8.70;;;4.70;;
8098;SDS011;4092;47.876;9.372;2024-03-02T01:35:42;7.73;;;5.20;;
8098;SDS011;4092;47.876;9.372;2024-03-02T01:38:10;7.73;;;5.27;;
8098;SDS011;4092;47.876;9.372;2024-03-02T01:40:37;10.23;;;4.60;;
8098;SDS011;4092;47.876;9.372;2024-03-02T01:43:06;7.00;;;4.20;;
8098;SDS011;4092;47.876;9.372;2024-03-02T01:45:33;11.87;;;5.70;;
8098;SDS011;4092;47.876;9.372;2024-03-02T01:48:02;8.07;;;4.77;;
8098;SDS011;4092;47.876;9.372;2024-03-02T01:50:31;7.47;;;4.33;;
8098;SDS011;4092;47.876;9.372;2024-03-02T01:52:58;7.20;;;4.00;;
8098;SDS011;4092;47.876;9.372;2024-03-02T01:55:26;7.70;;;4.13;;
8098;SDS011;4092;47.876;9.372;2024-03-02T01:57:55;5.53;;;4.33;;
8098;SDS011;4092;47.876;9.372;2024-03-02T02:00:24;12.30;;;4.83;;
8098;SDS011;4092;47.876;9.372;2024-03-02T02:02:51;22.37;;;5.43;;
8098;SDS011;4092;47.876;9.372;2024-03-02T02:05:19;29.47;;;4.73;;
8098;SDS011;4092;47.876;9.372;2024-03-02T02:07:46;22.00;;;6.00;;
8098;SDS011;4092;47.876;9.372;2024-03-02T02:10:13;11.10;;;4.57;;
8098;SDS011;4092;47.876;9.372;2024-03-02T02:12:40;15.43;;;4.93;;
8098;SDS011;4092;47.876;9.372;2024-03-02T02:17:51;12.47;;;4.40;;
8098;SDS011;4092;47.876;9.372;2024-03-02T02:20:19;11.40;;;4.50;;
8098;SDS011;4092;47.876;9.372;2024-03-02T02:22:54;11.93;;;4.27;;
8098;SDS011;4092;47.876;9.372;2024-03-02T02:25:22;9.60;;;4.03;;
8098;SDS011;4092;47.876;9.372;2024-03-02T02:27:49;4.00;;;3.10;;
8098;SDS011;4092;47.876;9.372;2024-03-02T02:30:18;12.30;;;5.07;;
8098;SDS011;4092;47.876;9.372;2024-03-02T02:32:46;10.93;;;4.53;;
8098;SDS011;4092;47.876;9.372;2024-03-02T02:35:13;9.77;;;4.20;;
8098;SDS011;4092;47.876;9.372;2024-03-02T02:37:40;6.93;;;4.33;;
8098;SDS011;4092;47.876;9.372;2024-03-02T02:40:09;6.00;;;3.60;;
8098;SDS011;4092;47.876;9.372;2024-03-02T02:42:37;8.20;;;3.83;;
8098;SDS011;4092;47.876;9.372;2024-03-02T02:45:05;5.63;;;3.33;;
8098;SDS011;4092;47.876;9.372;2024-03-02T02:47:32;6.07;;;4.20;;
8098;SDS011;4092;47.876;9.372;2024-03-02T02:50:00;6.07;;;4.07;;
8098;SDS011;4092;47.876;9.372;2024-03-02T02:52:30;9.37;;;5.70;;
8098;SDS011;4092;47.876;9.372;2024-03-02T02:55:00;7.03;;;4.10;;
8098;SDS011;4092;47.876;9.372;2024-03-02T02:57:30;7.60;;;4.57;;
8098;SDS011;4092;47.876;9.372;2024-03-02T03:00:00;6.00;;;4.40;;
8098;SDS011;4092;47.876;9.372;2024-03-02T03:02:35;4.67;;;3.37;;
8098;SDS011;4092;47.876;9.372;2024-03-02T03:05:03;7.83;;;4.40;;
8098;SDS011;4092;47.876;9.372;2024-03-02T03:07:31;7.47;;;3.60;;
8098;SDS011;4092;47.876;9.372;2024-03-02T03:09:58;5.60;;;3.50;;
8098;SDS011;4092;47.876;9.372;2024-03-02T03:12:25;5.60;;;4.03;;
8098;SDS011;4092;47.876;9.372;2024-03-02T03:14:54;6.57;;;3.97;;
8098;SDS011;4092;47.876;9.372;2024-03-02T03:17:21;8.70;;;4.30;;
8098;SDS011;4092;47.876;9.372;2024-03-02T03:19:48;4.93;;;2.60;;
8098;SDS011;4092;47.876;9.372;2024-03-02T03:22:15;7.30;;;3.80;;
8098;SDS011;4092;47.876;9.372;2024-03-02T03:24:42;8.70;;;4.00;;
8098;SDS011;4092;47.876;9.372;2024-03-02T03:27:09;5.23;;;3.03;;
8098;SDS011;4092;47.876;9.372;2024-03-02T03:29:36;7.90;;;4.57;;
8098;SDS011;4092;47.876;9.372;2024-03-02T03:32:06;10.00;;;4.03;;
8098;SDS011;4092;47.876;9.372;2024-03-02T03:34:33;6.47;;;3.70;;
8098;SDS011;4092;47.876;9.372;2024-03-02T03:37:00;3.93;;;3.23;;
8098;SDS011;4092;47.876;9.372;2024-03-02T03:39:28;6.53;;;3.30;;
8098;SDS011;4092;47.876;9.372;2024-03-02T03:41:55;7.67;;;3.57;;
8098;SDS011;4092;47.876;9.372;2024-03-02T03:44:22;3.97;;;2.80;;
8098;SDS011;4092;47.876;9.372;2024-03-02T03:46:49;6.03;;;3.73;;
8098;SDS011;4092;47.876;9.372;2024-03-02T03:49:17;5.10;;;3.90;;
8098;SDS011;4092;47.876;9.372;2024-03-02T03:51:44;6.93;;;3.10;;
8098;SDS011;4092;47.876;9.372;2024-03-02T03:54:11;5.03;;;3.63;;
8098;SDS011;4092;47.876;9.372;2024-03-02T03:56:38;6.23;;;4.00;;
8098;SDS011;4092;47.876;9.372;2024-03-02T03:59:05;6.77;;;3.80;;
8098;SDS011;4092;47.876;9.372;2024-03-02T04:01:32;6.00;;;3.20;;
8098;SDS011;4092;47.876;9.372;2024-03-02T04:03:59;5.27;;;3.70;;
8098;SDS011;4092;47.876;9.372;2024-03-02T04:06:30;9.13;;;3.67;;
8098;SDS011;4092;47.876;9.372;2024-03-02T04:08:57;7.53;;;3.63;;
8098;SDS011;4092;47.876;9.372;2024-03-02T04:11:24;5.97;;;3.83;;
8098;SDS011;4092;47.876;9.372;2024-03-02T04:13:51;8.43;;;4.17;;
8098;SDS011;4092;47.876;9.372;2024-03-02T04:16:18;5.00;;;3.53;;
8098;SDS011;4092;47.876;9.372;2024-03-02T04:18:45;7.33;;;3.50;;
8098;SDS011;4092;47.876;9.372;2024-03-02T04:21:12;5.00;;;3.90;;
8098;SDS011;4092;47.876;9.372;2024-03-02T04:23:40;9.00;;;4.20;;
8098;SDS011;4092;47.876;9.372;2024-03-02T04:26:07;5.70;;;2.80;;
8098;SDS011;4092;47.876;9.372;2024-03-02T04:28:34;4.60;;;3.33;;
8098;SDS011;4092;47.876;9.372;2024-03-02T04:31:01;4.00;;;3.00;;
8098;SDS011;4092;47.876;9.372;2024-03-02T04:33:28;5.33;;;4.10;;
8098;SDS011;4092;47.876;9.372;2024-03-02T04:35:55;6.60;;;4.47;;
8098;SDS011;4092;47.876;9.372;2024-03-02T04:38:22;7.40;;;3.60;;
8098;SDS011;4092;47.876;9.372;2024-03-02T04:40:51;5.17;;;3.27;;
8098;SDS011;4092;47.876;9.372;2024-03-02T04:43:18;9.70;;;4.37;;
8098;SDS011;4092;47.876;9.372;2024-03-02T04:45:45;12.93;;;5.60;;
8098;SDS011;4092;47.876;9.372;2024-03-02T04:48:12;9.00;;;4.33;;
8098;SDS011;4092;47.876;9.372;2024-03-02T04:50:39;10.03;;;5.17;;
8098;SDS011;4092;47.876;9.372;2024-03-02T04:53:06;5.57;;;3.43;;
8098;SDS011;4092;47.876;9.372;2024-03-02T04:55:33;7.37;;;4.47;;
8098;SDS011;4092;47.876;9.372;2024-03-02T04:58:45;8.50;;;4.00;;
8098;SDS011;4092;47.876;9.372;2024-03-02T05:01:12;8.07;;;3.83;;
8098;SDS011;4092;47.876;9.372;2024-03-02T05:03:41;7.13;;;3.07;;
8098;SDS011;4092;47.876;9.372;2024-03-02T05:06:08;6.53;;;4.60;;
8098;SDS011;4092;47.876;9.372;2024-03-02T05:08:35;7.10;;;3.80;;
8098;SDS011;4092;47.876;9.372;2024-03-02T05:11:02;8.67;;;4.33;;
8098;SDS011;4092;47.876;9.372;2024-03-02T05:13:43;7.87;;;4.27;;
8098;SDS011;4092;47.876;9.372;2024-03-02T05:16:12;6.37;;;3.53;;
8098;SDS011;4092;47.876;9.372;2024-03-02T05:18:39;7.97;;;4.23;;
8098;SDS011;4092;47.876;9.372;2024-03-02T05:21:06;6.90;;;3.97;;
8098;SDS011;4092;47.876;9.372;2024-03-02T05:23:33;9.60;;;4.00;;
8098;SDS011;4092;47.876;9.372;2024-03-02T05:26:00;10.40;;;5.23;;
8098;SDS011;4092;47.876;9.372;2024-03-02T05:28:27;8.27;;;4.20;;
8098;SDS011;4092;47.876;9.372;2024-03-02T05:30:55;8.83;;;4.77;;
8098;SDS011;4092;47.876;9.372;2024-03-02T05:33:22;8.77;;;4.80;;
8098;SDS011;4092;47.876;9.372;2024-03-02T05:35:49;11.23;;;6.63;;
8098;SDS011;4092;47.876;9.372;2024-03-02T05:38:16;8.37;;;4.27;;
8098;SDS011;4092;47.876;9.372;2024-03-02T05:40:43;11.50;;;5.20;;
8098;SDS011;4092;47.876;9.372;2024-03-02T05:43:10;7.60;;;4.43;;
8098;SDS011;4092;47.876;9.372;2024-03-02T05:45:37;7.80;;;5.20;;
8098;SDS011;4092;47.876;9.372;2024-03-02T05:48:07;9.00;;;5.13;;
8098;SDS011;4092;47.876;9.372;2024-03-02T05:50:34;6.00;;;4.03;;
8098;SDS011;4092;47.876;9.372;2024-03-02T05:53:01;7.90;;;4.33;;
8098;SDS011;4092;47.876;9.372;2024-03-02T05:55:28;7.47;;;5.30;;
8098;SDS011;4092;47.876;9.372;2024-03-02T05:57:56;10.50;;;5.00;;
8098;SDS011;4092;47.876;9.372;2024-03-02T06:00:40;8.03;;;4.30;;
8098;SDS011;4092;47.876;9.372;2024-03-02T06:03:09;8.07;;;3.97;;
8098;SDS011;4092;47.876;9.372;2024-03-02T06:05:36;9.17;;;4.47;;
8098;SDS011;4092;47.876;9.372;2024-03-02T06:08:03;6.97;;;4.10;;
8098;SDS011;4092;47.876;9.372;2024-03-02T06:10:30;7.40;;;4.50;;
8098;SDS011;4092;47.876;9.372;2024-03-02T06:12:57;6.20;;;4.50;;
8098;SDS011;4092;47.876;9.372;2024-03-02T06:15:25;5.60;;;3.57;;
8098;SDS011;4092;47.876;9.372;2024-03-02T06:17:51;10.77;;;4.90;;
8098;SDS011;4092;47.876;9.372;2024-03-02T06:20:20;8.37;;;4.87;;
8098;SDS011;4092;47.876;9.372;2024-03-02T06:22:47;7.20;;;4.50;;
8098;SDS011;4092;47.876;9.372;2024-03-02T06:25:14;9.57;;;4.70;;
8098;SDS011;4092;47.876;9.372;2024-03-02T06:27:41;6.13;;;4.07;;
8098;SDS011;4092;47.876;9.372;2024-03-02T06:30:08;6.93;;;4.30;;
8098;SDS011;4092;47.876;9.372;2024-03-02T06:32:36;8.50;;;5.13;;
8098;SDS011;4092;47.876;9.372;2024-03-02T06:35:04;11.13;;;6.30;;
8098;SDS011;4092;47.876;9.372;2024-03-02T06:37:36;6.93;;;4.43;;
8098;SDS011;4092;47.876;9.372;2024-03-02T06:40:05;14.60;;;5.50;;
8098;SDS011;4092;47.876;9.372;2024-03-02T06:42:33;5.50;;;4.60;;
8098;SDS011;4092;47.876;9.372;2024-03-02T06:45:00;11.07;;;6.40;;
8098;SDS011;4092;47.876;9.372;2024-03-02T06:47:27;6.07;;;4.27;;
8098;SDS011;4092;47.876;9.372;2024-03-02T06:49:54;5.33;;;2.60;;
8098;SDS011;4092;47.876;9.372;2024-03-02T06:52:22;5.70;;;3.10;;
8098;SDS011;4092;47.876;9.372;2024-03-02T06:54:50;4.33;;;3.00;;
8098;SDS011;4092;47.876;9.372;2024-03-02T06:57:17;6.60;;;3.80;;
8098;SDS011;4092;47.876;9.372;2024-03-02T06:59:45;15.70;;;3.43;;
8098;SDS011;4092;47.876;9.372;2024-03-02T07:02:13;5.30;;;3.33;;
8098;SDS011;4092;47.876;9.372;2024-03-02T07:04:40;4.53;;;4.03;;
8098;SDS011;4092;47.876;9.372;2024-03-02T07:07:07;4.90;;;2.63;;
8098;SDS011;4092;47.876;9.372;2024-03-02T07:09:35;7.20;;;3.60;;
8098;SDS011;4092;47.876;9.372;2024-03-02T07:12:03;9.20;;;4.80;;
8098;SDS011;4092;47.876;9.372;2024-03-02T07:14:31;7.70;;;3.43;;
8098;SDS011;4092;47.876;9.372;2024-03-02T07:17:12;7.13;;;3.77;;
8098;SDS011;4092;47.876;9.372;2024-03-02T07:19:39;7.80;;;3.80;;
8098;SDS011;4092;47.876;9.372;2024-03-02T07:22:06;5.83;;;2.93;;
8098;SDS011;4092;47.876;9.372;2024-03-02T07:24:38;5.90;;;3.10;;
8098;SDS011;4092;47.876;9.372;2024-03-02T07:27:08;9.73;;;4.70;;
8098;SDS011;4092;47.876;9.372;2024-03-02T07:29:37;5.70;;;4.73;;
8098;SDS011;4092;47.876;9.372;2024-03-02T07:32:07;11.50;;;6.63;;
8098;SDS011;4092;47.876;9.372;2024-03-02T07:34:35;6.97;;;4.90;;
8098;SDS011;4092;47.876;9.372;2024-03-02T07:37:02;7.40;;;4.03;;
8098;SDS011;4092;47.876;9.372;2024-03-02T07:39:30;9.23;;;4.33;;
8098;SDS011;4092;47.876;9.372;2024-03-02T07:41:57;5.70;;;3.67;;
8098;SDS011;4092;47.876;9.372;2024-03-02T07:44:25;7.60;;;4.73;;
8098;SDS011;4092;47.876;9.372;2024-03-02T07:46:52;5.17;;;3.33;;
8098;SDS011;4092;47.876;9.372;2024-03-02T07:49:20;4.43;;;2.93;;
8098;SDS011;4092;47.876;9.372;2024-03-02T07:51:47;7.33;;;5.00;;
8098;SDS011;4092;47.876;9.372;2024-03-02T07:54:14;7.43;;;3.40;;
8098;SDS011;4092;47.876;9.372;2024-03-02T07:56:41;7.93;;;4.37;;
8098;SDS011;4092;47.876;9.372;2024-03-02T07:59:08;4.77;;;2.57;;
8098;SDS011;4092;47.876;9.372;2024-03-02T08:01:36;4.70;;;3.30;;
8098;SDS011;4092;47.876;9.372;2024-03-02T08:04:03;6.37;;;3.77;;
8098;SDS011;4092;47.876;9.372;2024-03-02T08:06:31;5.20;;;3.43;;
8098;SDS011;4092;47.876;9.372;2024-03-02T08:08:58;6.17;;;3.53;;
8098;SDS011;4092;47.876;9.372;2024-03-02T08:11:27;9.40;;;4.03;;
8098;SDS011;4092;47.876;9.372;2024-03-02T08:13:56;8.17;;;5.07;;
8098;SDS011;4092;47.876;9.372;2024-03-02T08:16:23;7.37;;;4.57;;
8098;SDS011;4092;47.876;9.372;2024-03-02T08:18:52;14.87;;;5.93;;
8098;SDS011;4092;47.876;9.372;2024-03-02T08:21:19;11.07;;;7.00;;
8098;SDS011;4092;47.876;9.372;2024-03-02T08:23:46;6.93;;;5.53;;
8098;SDS011;4092;47.876;9.372;2024-03-02T08:26:14;7.53;;;5.60;;
8098;SDS011;4092;47.876;9.372;2024-03-02T08:28:41;9.57;;;7.40;;
8098;SDS011;4092;47.876;9.372;2024-03-02T08:31:08;9.13;;;6.97;;
8098;SDS011;4092;47.876;9.372;2024-03-02T08:33:35;10.70;;;5.80;;
8098;SDS011;4092;47.876;9.372;2024-03-02T08:36:04;6.00;;;4.73;;
8098;SDS011;4092;47.876;9.372;2024-03-02T08:38:32;8.77;;;4.93;;
8098;SDS011;4092;47.876;9.372;2024-03-02T08:40:59;7.20;;;4.50;;
8098;SDS011;4092;47.876;9.372;2024-03-02T08:43:26;11.13;;;5.37;;
8098;SDS011;4092;47.876;9.372;2024-03-02T08:45:54;4.00;;;2.67;;
8098;SDS011;4092;47.876;9.372;2024-03-02T08:48:21;6.13;;;3.33;;
8098;SDS011;4092;47.876;9.372;2024-03-02T08:50:48;6.57;;;3.73;;
8098;SDS011;4092;47.876;9.372;2024-03-02T08:53:16;5.60;;;3.97;;
8098;SDS011;4092;47.876;9.372;2024-03-02T08:55:44;6.97;;;5.27;;
8098;SDS011;4092;47.876;9.372;2024-03-02T08:58:11;6.20;;;3.90;;
8098;SDS011;4092;47.876;9.372;2024-03-02T09:00:39;5.80;;;3.43;;
8098;SDS011;4092;47.876;9.372;2024-03-02T09:03:06;7.90;;;4.40;;
8098;SDS011;4092;47.876;9.372;2024-03-02T09:05:33;7.87;;;4.37;;
8098;SDS011;4092;47.876;9.372;2024-03-02T09:08:01;6.27;;;3.93;;
8098;SDS011;4092;47.876;9.372;2024-03-02T09:10:30;4.73;;;3.00;;
8098;SDS011;4092;47.876;9.372;2024-03-02T09:12:57;10.40;;;5.60;;
8098;SDS011;4092;47.876;9.372;2024-03-02T09:15:27;7.40;;;4.83;;
8098;SDS011;4092;47.876;9.372;2024-03-02T09:17:54;15.37;;;8.63;;
8098;SDS011;4092;47.876;9.372;2024-03-02T09:20:21;7.50;;;4.60;;
8098;SDS011;4092;47.876;9.372;2024-03-02T09:22:49;7.03;;;4.23;;
8098;SDS011;4092;47.876;9.372;2024-03-02T09:25:16;5.57;;;4.70;;
8098;SDS011;4092;47.876;9.372;2024-03-02T09:27:44;9.30;;;5.90;;
8098;SDS011;4092;47.876;9.372;2024-03-02T09:30:11;5.00;;;4.27;;
8098;SDS011;4092;47.876;9.372;2024-03-02T09:32:40;6.73;;;4.17;;
8098;SDS011;4092;47.876;9.372;2024-03-02T09:35:07;5.30;;;3.90;;
8098;SDS011;4092;47.876;9.372;2024-03-02T09:37:34;6.30;;;3.80;;
8098;SDS011;4092;47.876;9.372;2024-03-02T09:40:02;7.13;;;4.70;;
8098;SDS011;4092;47.876;9.372;2024-03-02T09:42:29;6.73;;;4.20;;
8098;SDS011;4092;47.876;9.372;2024-03-02T09:44:58;8.20;;;4.77;;
8098;SDS011;4092;47.876;9.372;2024-03-02T09:47:26;6.87;;;4.63;;
8098;SDS011;4092;47.876;9.372;2024-03-02T09:49:53;15.63;;;4.90;;
8098;SDS011;4092;47.876;9.372;2024-03-02T09:52:20;8.83;;;5.17;;
8098;SDS011;4092;47.876;9.372;2024-03-02T09:54:48;6.43;;;4.77;;
8098;SDS011;4092;47.876;9.372;2024-03-02T09:57:15;7.13;;;5.40;;
8098;SDS011;4092;47.876;9.372;2024-03-02T09:59:43;8.37;;;4.90;;
8098;SDS011;4092;47.876;9.372;2024-03-02T10:02:11;10.60;;;6.00;;
8098;SDS011;4092;47.876;9.372;2024-03-02T10:04:38;10.20;;;5.70;;
8098;SDS011;4092;47.876;9.372;2024-03-02T10:07:09;8.17;;;4.97;;
8098;SDS011;4092;47.876;9.372;2024-03-02T10:09:40;7.23;;;4.90;;
8098;SDS011;4092;47.876;9.372;2024-03-02T10:12:08;9.10;;;5.37;;
8098;SDS011;4092;47.876;9.372;2024-03-02T10:14:36;7.83;;;4.67;;
8098;SDS011;4092;47.876;9.372;2024-03-02T10:17:05;8.90;;;5.97;;
8098;SDS011;4092;47.876;9.372;2024-03-02T10:19:34;7.53;;;4.77;;
8098;SDS011;4092;47.876;9.372;2024-03-02T10:22:03;8.60;;;4.87;;
8098;SDS011;4092;47.876;9.372;2024-03-02T10:24:37;5.27;;;4.10;;
8098;SDS011;4092;47.876;9.372;2024-03-02T10:27:09;7.33;;;4.80;;
8098;SDS011;4092;47.876;9.372;2024-03-02T10:29:37;6.70;;;3.80;;
8098;SDS011;4092;47.876;9.372;2024-03-02T10:32:05;7.67;;;4.40;;
8098;SDS011;4092;47.876;9.372;2024-03-02T10:34:36;6.00;;;3.97;;
8098;SDS011;4092;47.876;9.372;2024-03-02T10:37:04;8.30;;;5.03;;
8098;SDS011;4092;47.876;9.372;2024-03-02T10:39:32;7.43;;;4.47;;
8098;SDS011;4092;47.876;9.372;2024-03-02T10:42:01;9.37;;;5.30;;
8098;SDS011;4092;47.876;9.372;2024-03-02T10:44:30;6.40;;;3.80;;
8098;SDS011;4092;47.876;9.372;2024-03-02T10:46:59;6.40;;;3.60;;
8098;SDS011;4092;47.876;9.372;2024-03-02T10:49:27;9.17;;;7.00;;
8098;SDS011;4092;47.876;9.372;2024-03-02T10:51:57;9.10;;;5.20;;
8098;SDS011;4092;47.876;9.372;2024-03-02T10:54:25;11.10;;;7.07;;
8098;SDS011;4092;47.876;9.372;2024-03-02T10:56:54;10.47;;;4.73;;
8098;SDS011;4092;47.876;9.372;2024-03-02T10:59:27;7.23;;;4.87;;
8098;SDS011;4092;47.876;9.372;2024-03-02T11:01:56;11.37;;;5.60;;
8098;SDS011;4092;47.876;9.372;2024-03-02T11:04:25;9.30;;;4.30;;
8098;SDS011;4092;47.876;9.372;2024-03-02T11:06:54;6.37;;;4.23;;
8098;SDS011;4092;47.876;9.372;2024-03-02T11:09:27;6.50;;;4.27;;
8098;SDS011;4092;47.876;9.372;2024-03-02T11:11:58;6.10;;;4.20;;
8098;SDS011;4092;47.876;9.372;2024-03-02T11:14:30;5.07;;;3.33;;
8098;SDS011;4092;47.876;9.372;2024-03-02T11:16:58;4.80;;;3.43;;
8098;SDS011;4092;47.876;9.372;2024-03-02T11:19:28;8.10;;;4.73;;
8098;SDS011;4092;47.876;9.372;2024-03-02T11:21:58;4.50;;;3.03;;
8098;SDS011;4092;47.876;9.372;2024-03-02T11:24:29;4.60;;;3.00;;
8098;SDS011;4092;47.876;9.372;2024-03-02T11:27:00;4.70;;;2.80;;
8098;SDS011;4092;47.876;9.372;2024-03-02T11:29:43;5.30;;;2.73;;
8098;SDS011;4092;47.876;9.372;2024-03-02T11:32:17;4.90;;;3.53;;
8098;SDS011;4092;47.876;9.372;2024-03-02T11:34:47;3.83;;;2.80;;
8098;SDS011;4092;47.876;9.372;2024-03-02T11:37:18;4.87;;;2.90;;
8098;SDS011;4092;47.876;9.372;2024-03-02T11:39:46;5.57;;;3.00;;
8098;SDS011;4092;47.876;9.372;2024-03-02T11:42:16;2.70;;;2.03;;
8098;SDS011;4092;47.876;9.372;2024-03-02T11:44:45;5.03;;;3.63;;
8098;SDS011;4092;47.876;9.372;2024-03-02T11:47:13;5.20;;;4.17;;
8098;SDS011;4092;47.876;9.372;2024-03-02T11:49:43;5.07;;;2.80;;
8098;SDS011;4092;47.876;9.372;2024-03-02T11:52:12;6.30;;;2.23;;
8098;SDS011;4092;47.876;9.372;2024-03-02T11:54:42;3.90;;;2.20;;
8098;SDS011;4092;47.876;9.372;2024-03-02T11:57:14;3.53;;;2.30;;
8098;SDS011;4092;47.876;9.372;2024-03-02T11:59:43;3.40;;;1.80;;
8098;SDS011;4092;47.876;9.372;2024-03-02T12:02:14;5.53;;;2.10;;
8098;SDS011;4092;47.876;9.372;2024-03-02T12:04:43;5.17;;;2.33;;
8098;SDS011;4092;47.876;9.372;2024-03-02T12:07:11;3.73;;;1.93;;
8098;SDS011;4092;47.876;9.372;2024-03-02T12:09:38;2.37;;;1.53;;
8098;SDS011;4092;47.876;9.372;2024-03-02T12:12:08;4.50;;;2.60;;
8098;SDS011;4092;47.876;9.372;2024-03-02T12:14:37;1.90;;;1.50;;
8098;SDS011;4092;47.876;9.372;2024-03-02T12:17:05;2.63;;;1.63;;
8098;SDS011;4092;47.876;9.372;2024-03-02T12:19:32;2.30;;;1.20;;
8098;SDS011;4092;47.876;9.372;2024-03-02T12:21:59;3.40;;;1.30;;
8098;SDS011;4092;47.876;9.372;2024-03-02T12:24:27;3.03;;;1.70;;
8098;SDS011;4092;47.876;9.372;2024-03-02T12:26:55;2.80;;;1.57;;
8098;SDS011;4092;47.876;9.372;2024-03-02T12:29:24;2.13;;;1.33;;
8098;SDS011;4092;47.876;9.372;2024-03-02T12:31:52;3.80;;;2.23;;
8098;SDS011;4092;47.876;9.372;2024-03-02T12:34:19;1.60;;;1.40;;
8098;SDS011;4092;47.876;9.372;2024-03-02T12:36:48;2.70;;;1.57;;
8098;SDS011;4092;47.876;9.372;2024-03-02T12:39:18;4.07;;;2.00;;
8098;SDS011;4092;47.876;9.372;2024-03-02T12:41:45;1.70;;;1.13;;
8098;SDS011;4092;47.876;9.372;2024-03-02T12:44:15;3.40;;;1.60;;
8098;SDS011;4092;47.876;9.372;2024-03-02T12:46:44;2.63;;;1.30;;
8098;SDS011;4092;47.876;9.372;2024-03-02T12:49:13;1.90;;;1.57;;
8098;SDS011;4092;47.876;9.372;2024-03-02T12:51:41;2.80;;;1.77;;
8098;SDS011;4092;47.876;9.372;2024-03-02T12:54:09;2.10;;;1.40;;
8098;SDS011;4092;47.876;9.372;2024-03-02T12:56:37;1.43;;;1.30;;
8098;SDS011;4092;47.876;9.372;2024-03-02T12:59:04;2.33;;;1.57;;
8098;SDS011;4092;47.876;9.372;2024-03-02T13:01:31;2.00;;;1.40;;
8098;SDS011;4092;47.876;9.372;2024-03-02T13:04:00;1.60;;;1.30;;
8098;SDS011;4092;47.876;9.372;2024-03-02T13:06:27;2.40;;;1.10;;
8098;SDS011;4092;47.876;9.372;2024-03-02T13:09:00;1.90;;;1.40;;
8098;SDS011;4092;47.876;9.372;2024-03-02T13:11:28;4.63;;;1.30;;
8098;SDS011;4092;47.876;9.372;2024-03-02T13:13:55;2.03;;;1.50;;
8098;SDS011;4092;47.876;9.372;2024-03-02T13:16:22;3.20;;;1.10;;
8098;SDS011;4092;47.876;9.372;2024-03-02T13:18:51;2.50;;;1.23;;
8098;SDS011;4092;47.876;9.372;2024-03-02T13:21:19;2.13;;;1.30;;
8098;SDS011;4092;47.876;9.372;2024-03-02T13:23:46;2.10;;;1.10;;
8098;SDS011;4092;47.876;9.372;2024-03-02T13:26:13;2.00;;;1.53;;
8098;SDS011;4092;47.876;9.372;2024-03-02T13:28:40;1.77;;;1.10;;
8098;SDS011;4092;47.876;9.372;2024-03-02T13:31:07;1.97;;;1.30;;
8098;SDS011;4092;47.876;9.372;2024-03-02T13:33:34;3.77;;;1.50;;
8098;SDS011;4092;47.876;9.372;2024-03-02T13:36:02;1.87;;;1.53;;
8098;SDS011;4092;47.876;9.372;2024-03-02T13:38:30;2.20;;;1.80;;
8098;SDS011;4092;47.876;9.372;2024-03-02T13:40:57;3.30;;;2.40;;
8098;SDS011;4092;47.876;9.372;2024-03-02T13:43:26;2.33;;;1.60;;
8098;SDS011;4092;47.876;9.372;2024-03-02T13:45:57;3.37;;;1.70;;
8098;SDS011;4092;47.876;9.372;2024-03-02T13:48:24;2.83;;;1.80;;
8098;SDS011;4092;47.876;9.372;2024-03-02T13:50:51;4.67;;;3.47;;
8098;SDS011;4092;47.876;9.372;2024-03-02T13:53:18;2.50;;;1.90;;
8098;SDS011;4092;47.876;9.372;2024-03-02T13:55:47;1.90;;;1.50;;
8098;SDS011;4092;47.876;9.372;2024-03-02T13:58:14;2.67;;;2.10;;
8098;SDS011;4092;47.876;9.372;2024-03-02T14:00:41;2.43;;;1.70;;
8098;SDS011;4092;47.876;9.372;2024-03-02T14:03:08;2.90;;;1.60;;
8098;SDS011;4092;47.876;9.372;2024-03-02T14:05:35;2.80;;;1.80;;
8098;SDS011;4092;47.876;9.372;2024-03-02T14:08:02;1.43;;;1.20;;
8098;SDS011;4092;47.876;9.372;2024-03-02T14:10:30;2.30;;;1.43;;
8098;SDS011;4092;47.876;9.372;2024-03-02T14:12:58;2.13;;;1.40;;
8098;SDS011;4092;47.876;9.372;2024-03-02T14:15:25;1.50;;;1.07;;
8098;SDS011;4092;47.876;9.372;2024-03-02T14:17:55;1.87;;;1.50;;
8098;SDS011;4092;47.876;9.372;2024-03-02T14:20:22;2.23;;;1.30;;
8098;SDS011;4092;47.876;9.372;2024-03-02T14:22:49;2.27;;;1.53;;
8098;SDS011;4092;47.876;9.372;2024-03-02T14:25:16;3.70;;;1.60;;
8098;SDS011;4092;47.876;9.372;2024-03-02T14:27:44;1.97;;;1.23;;
8098;SDS011;4092;47.876;9.372;2024-03-02T14:30:13;1.67;;;1.10;;
8098;SDS011;4092;47.876;9.372;2024-03-02T14:32:40;1.90;;;1.27;;
8098;SDS011;4092;47.876;9.372;2024-03-02T14:35:08;1.93;;;1.33;;
8098;SDS011;4092;47.876;9.372;2024-03-02T14:37:36;3.47;;;2.00;;
8098;SDS011;4092;47.876;9.372;2024-03-02T14:40:04;2.10;;;1.30;;
8098;SDS011;4092;47.876;9.372;2024-03-02T14:42:34;1.87;;;1.40;;
8098;SDS011;4092;47.876;9.372;2024-03-02T14:45:01;4.70;;;1.00;;
8098;SDS011;4092;47.876;9.372;2024-03-02T14:47:32;2.00;;;1.03;;
8098;SDS011;4092;47.876;9.372;2024-03-02T14:50:00;2.20;;;1.57;;
8098;SDS011;4092;47.876;9.372;2024-03-02T14:52:30;2.07;;;1.17;;
8098;SDS011;4092;47.876;9.372;2024-03-02T14:54:57;1.10;;;0.83;;
8098;SDS011;4092;47.876;9.372;2024-03-02T14:57:24;1.87;;;1.10;;
8098;SDS011;4092;47.876;9.372;2024-03-02T14:59:51;1.50;;;0.93;;
8098;SDS011;4092;47.876;9.372;2024-03-02T15:02:19;2.00;;;1.10;;
8098;SDS011;4092;47.876;9.372;2024-03-02T15:04:47;9.53;;;1.67;;
8098;SDS011;4092;47.876;9.372;2024-03-02T15:07:15;2.17;;;1.20;;
8098;SDS011;4092;47.876;9.372;2024-03-02T15:09:42;2.33;;;1.40;;
8098;SDS011;4092;47.876;9.372;2024-03-02T15:12:09;1.70;;;1.17;;
8098;SDS011;4092;47.876;9.372;2024-03-02T15:14:38;2.20;;;1.03;;
8098;SDS011;4092;47.876;9.372;2024-03-02T15:17:10;4.20;;;1.30;;
8098;SDS011;4092;47.876;9.372;2024-03-02T15:19:40;2.40;;;1.47;;
8098;SDS011;4092;47.876;9.372;2024-03-02T15:22:09;1.93;;;1.40;;
8098;SDS011;4092;47.876;9.372;2024-03-02T15:24:36;3.13;;;1.50;;
8098;SDS011;4092;47.876;9.372;2024-03-02T15:27:04;3.33;;;1.50;;